Time;durP1;ratioP1;P1;durP2;ratioP2;P2;SDS_P1;SDS_P2;PMS_P1;PMS_P2;Temp;Humidity;BMP_temperature;BMP_pressure;BME280_temperature;BME280_humidity;BME280_pressure;Samples;Min_cycle;Max_cycle;Signal;HPM_P1;HPM_P2
2021/01/12 00:01:38;;;;;;;7.50;6.90;;;;;;;2.76;85.88;99675.28;5043854;28;20213;-78
2021/01/12 00:04:04;;;;;;;7.90;7.30;;;;;;;2.86;86.27;99671.84;5043855;28;20254;-78
2021/01/12 00:06:31;;;;;;;7.90;7.30;;;;;;;2.86;85.78;99668.41;5039362;28;20702;-77
2021/01/12 00:08:57;;;;;;;7.17;6.47;;;;;;;2.84;85.98;99671.00;5053816;28;20198;-79
2021/01/12 00:11:23;;;;;;;7.10;6.60;;;;;;;2.84;85.90;99671.00;5044493;28;20296;-78
2021/01/12 00:13:49;;;;;;;6.80;6.30;;;;;;;2.91;86.28;99656.38;5038387;28;20205;-78
2021/01/12 00:16:18;;;;;;;7.43;6.83;;;;;;;2.94;85.62;99652.06;5037940;28;20256;-78
2021/01/12 00:18:44;;;;;;;6.70;6.20;;;;;;;2.88;85.32;99646.94;5046734;28;20257;-78
2021/01/12 00:21:10;;;;;;;7.23;6.63;;;;;;;2.98;85.94;99648.63;5041815;28;20210;-78
2021/01/12 00:23:36;;;;;;;7.30;6.80;;;;;;;2.99;85.81;99641.75;5045178;28;20255;-78
2021/01/12 00:26:05;;;;;;;6.60;6.00;;;;;;;2.94;84.80;99649.50;5044445;28;20228;-78
2021/01/12 00:28:31;;;;;;;6.70;6.20;;;;;;;3.01;85.32;99655.50;5034025;28;20256;-78
2021/01/12 00:30:57;;;;;;;6.63;6.13;;;;;;;2.87;85.30;99655.50;5042721;28;20209;-78
2021/01/12 00:33:23;;;;;;;7.17;6.57;;;;;;;2.93;85.07;99655.53;5049654;28;20304;-78
2021/01/12 00:35:48;;;;;;;6.87;6.37;;;;;;;2.94;85.26;99644.34;5047861;28;20261;-78
2021/01/12 00:38:14;;;;;;;7.00;6.50;;;;;;;2.92;85.64;99651.22;5055544;28;20217;-78
2021/01/12 00:40:41;;;;;;;7.17;6.57;;;;;;;2.82;85.04;99643.50;5042708;28;20247;-78
2021/01/12 00:43:07;;;;;;;7.50;6.90;;;;;;;2.85;85.82;99641.75;5054882;28;20214;-79
2021/01/12 00:45:32;;;;;;;6.93;6.43;;;;;;;2.95;85.77;99628.03;5037452;28;20225;-79
2021/01/12 00:47:58;;;;;;;7.07;6.57;;;;;;;2.88;85.57;99635.78;5049319;28;20197;-78
2021/01/12 00:50:24;;;;;;;6.80;6.20;;;;;;;2.82;85.77;99638.34;5048602;28;20264;-77
2021/01/12 00:52:50;;;;;;;6.60;6.10;;;;;;;2.76;86.06;99634.06;5051769;28;20224;-78
2021/01/12 00:55:16;;;;;;;7.37;6.80;;;;;;;2.88;86.18;99625.47;5051384;28;20308;-78
2021/01/12 00:57:42;;;;;;;7.87;7.37;;;;;;;2.89;85.37;99615.13;5047860;28;20197;-78
2021/01/12 01:00:09;;;;;;;6.57;5.97;;;;;;;2.93;85.61;99610.81;5041821;28;20575;-78
2021/01/12 01:02:35;;;;;;;6.37;5.90;;;;;;;2.94;85.75;99607.41;5040846;28;20197;-78
2021/01/12 01:05:01;;;;;;;7.23;6.73;;;;;;;3.04;85.21;99598.78;5044227;28;20284;-77
2021/01/12 01:07:27;;;;;;;6.50;6.00;;;;;;;3.07;84.67;99590.19;5044491;28;20641;-78
2021/01/12 01:09:53;;;;;;;6.03;5.63;;;;;;;3.07;85.04;99590.19;5046371;28;20280;-78
2021/01/12 01:12:19;;;;;;;6.40;5.90;;;;;;;3.11;84.89;99581.56;5045085;28;20229;-78
2021/01/12 01:14:45;;;;;;;6.27;5.77;;;;;;;3.07;85.44;99570.44;5047027;28;20234;-78
2021/01/12 01:17:11;;;;;;;6.43;5.93;;;;;;;3.02;85.03;99584.19;5044709;28;20210;-78
2021/01/12 01:19:37;;;;;;;7.43;6.90;;;;;;;2.94;85.30;99574.75;5048064;28;20270;-78
2021/01/12 01:22:03;;;;;;;6.90;6.40;;;;;;;3.05;85.28;99568.69;5042067;28;20234;-78
2021/01/12 01:24:29;;;;;;;6.77;6.27;;;;;;;3.10;85.09;99578.16;5039228;28;20199;-78
2021/01/12 01:26:56;;;;;;;7.03;6.57;;;;;;;3.20;85.48;99572.97;5038092;28;20217;-78
2021/01/12 01:29:22;;;;;;;7.13;6.60;;;;;;;3.31;85.17;99566.91;5037334;28;20729;-77
2021/01/12 01:31:49;;;;;;;6.53;6.03;;;;;;;3.34;84.53;99555.72;5038653;28;20218;-78
2021/01/12 01:34:15;;;;;;;6.90;6.40;;;;;;;3.35;84.37;99560.88;5039828;28;20205;-79
2021/01/12 01:36:41;;;;;;;6.60;6.10;;;;;;;3.33;84.64;99557.47;5039850;28;20714;-78
2021/01/12 01:39:07;;;;;;;6.60;6.10;;;;;;;3.31;84.90;99558.31;5038858;28;20194;-79
2021/01/12 01:41:33;;;;;;;6.80;6.27;;;;;;;3.32;84.88;99545.41;5038157;28;20198;-79
2021/01/12 01:43:58;;;;;;;7.10;6.60;;;;;;;3.27;84.60;99542.00;5036609;28;20217;-79
2021/01/12 01:46:24;;;;;;;6.13;5.73;;;;;;;3.16;84.92;99544.59;5036515;28;20230;-78
2021/01/12 01:48:51;;;;;;;7.13;6.63;;;;;;;3.25;85.95;99532.53;5038896;28;20687;-78
2021/01/12 01:51:18;;;;;;;7.53;6.93;;;;;;;3.18;85.63;99535.16;5038904;28;20206;-78
2021/01/12 01:53:44;;;;;;;7.10;6.60;;;;;;;3.21;86.29;99539.44;5037352;28;20206;-79
2021/01/12 01:56:10;;;;;;;7.00;6.40;;;;;;;3.17;86.16;99535.13;5036972;28;20225;-79
2021/01/12 01:58:38;;;;;;;7.20;6.60;;;;;;;3.21;86.23;99531.72;5037404;28;20948;-78
2021/01/12 02:01:04;;;;;;;7.70;7.10;;;;;;;3.18;86.40;99523.97;5035837;28;20554;-79
2021/01/12 02:03:36;;;;;;;7.53;6.83;;;;;;;3.21;86.07;99520.53;5038363;28;20243;-78
2021/01/12 02:06:06;;;;;;;6.53;6.03;;;;;;;3.29;85.74;99522.22;5038007;28;20230;-79
2021/01/12 02:08:44;;;;;;;6.60;6.10;;;;;;;3.29;86.26;99519.66;5038196;28;20830;-79
2021/01/12 02:11:14;;;;;;;7.03;6.50;;;;;;;3.25;86.28;99514.50;5035861;28;20213;-78
2021/01/12 02:13:41;;;;;;;6.13;5.73;;;;;;;3.25;86.04;99510.22;5037327;28;20264;-79
2021/01/12 02:16:08;;;;;;;5.63;5.30;;;;;;;3.24;85.93;99497.31;5036280;28;20580;-79
2021/01/12 02:18:34;;;;;;;5.20;4.80;;;;;;;3.24;85.60;99497.31;5038913;28;20212;-79
2021/01/12 02:21:02;;;;;;;5.40;5.07;;;;;;;3.17;85.76;99491.31;5036928;28;20730;-78
2021/01/12 02:23:34;;;;;;;5.37;4.97;;;;;;;3.14;86.56;99491.34;5037452;28;20265;-78
2021/01/12 02:26:01;;;;;;;5.63;5.23;;;;;;;3.05;86.29;99475.91;5038661;28;20222;-78
2021/01/12 02:28:28;;;;;;;5.47;5.07;;;;;;;3.11;86.87;99469.00;5036580;28;20198;-78
2021/01/12 02:30:54;;;;;;;5.20;4.80;;;;;;;3.10;86.59;99482.75;5036253;28;20210;-78
2021/01/12 02:33:19;;;;;;;5.47;5.07;;;;;;;3.14;86.30;99466.41;5036434;28;20692;-78
2021/01/12 02:35:49;;;;;;;5.50;5.10;;;;;;;3.09;86.79;99465.59;5035058;28;20237;-79
2021/01/12 02:38:15;;;;;;;5.10;4.70;;;;;;;3.11;86.42;99466.44;5036555;28;20198;-79
2021/01/12 02:40:41;;;;;;;5.10;4.70;;;;;;;3.14;87.15;99461.25;4339556;28;10000732;-79
2021/01/12 02:43:08;;;;;;;4.70;4.40;;;;;;;3.11;86.39;99456.13;5041806;28;20205;-79
2021/01/12 02:45:34;;;;;;;4.87;4.50;;;;;;;3.02;86.19;99450.16;5035175;28;20643;-79
2021/01/12 02:48:00;;;;;;;4.37;4.07;;;;;;;3.11;86.92;99440.66;5044317;28;20416;-78
2021/01/12 02:50:26;;;;;;;4.97;4.57;;;;;;;3.07;86.48;99443.22;5049114;28;20649;-78
2021/01/12 02:52:51;;;;;;;5.03;4.63;;;;;;;3.04;87.19;99441.53;5043978;28;20517;-79
2021/01/12 02:55:17;;;;;;;5.50;5.10;;;;;;;3.12;87.41;99437.19;5050875;28;20233;-79
2021/01/12 02:57:43;;;;;;;4.97;4.63;;;;;;;3.12;87.22;99426.03;5052979;28;20205;-79
2021/01/12 03:00:13;;;;;;;4.73;4.33;;;;;;;3.20;86.61;99424.25;5051467;28;20600;-79
2021/01/12 03:02:39;;;;;;;4.30;4.00;;;;;;;3.26;86.44;99420.78;5043981;28;20206;-78
2021/01/12 03:05:07;;;;;;;4.77;4.47;;;;;;;3.26;87.07;99423.38;5047575;28;20222;-78
2021/01/12 03:07:33;;;;;;;4.27;3.97;;;;;;;3.32;86.56;99416.44;5047504;28;20255;-78
2021/01/12 03:09:59;;;;;;;4.83;4.47;;;;;;;3.28;87.30;99419.06;5044022;28;20202;-78
2021/01/12 03:12:25;;;;;;;5.40;4.90;;;;;;;3.18;87.13;99413.94;5046297;28;20208;-78
2021/01/12 03:14:51;;;;;;;4.77;4.37;;;;;;;3.21;86.63;99407.06;5044531;28;20272;-78
2021/01/12 03:17:19;;;;;;;5.03;4.63;;;;;;;3.14;86.92;99401.09;5047411;28;20217;-78
2021/01/12 03:19:45;;;;;;;4.33;4.03;;;;;;;3.13;87.28;99397.66;5054751;28;20566;-78
2021/01/12 03:22:13;;;;;;;4.43;4.07;;;;;;;3.20;86.80;99400.22;5046892;28;20213;-79
2021/01/12 03:24:39;;;;;;;4.47;4.13;;;;;;;3.17;86.92;99389.03;5047700;28;20294;-78
2021/01/12 03:27:05;;;;;;;4.07;3.87;;;;;;;3.15;87.26;99380.47;5046688;28;20210;-79
2021/01/12 03:29:31;;;;;;;4.97;4.57;;;;;;;3.16;87.27;99371.84;5055226;28;20198;-79
2021/01/12 03:31:57;;;;;;;4.60;4.20;;;;;;;3.13;87.39;99378.75;5040333;28;20217;-78
2021/01/12 03:34:24;;;;;;;4.17;3.87;;;;;;;3.14;87.51;99378.72;5047532;28;20225;-78
2021/01/12 03:36:50;;;;;;;4.23;3.93;;;;;;;3.17;87.47;99377.84;5046674;28;20287;-79
2021/01/12 03:39:16;;;;;;;3.93;3.63;;;;;;;3.18;87.59;99361.53;5032907;28;20197;-78
2021/01/12 03:41:43;;;;;;;4.20;3.90;;;;;;;3.20;87.00;99359.81;5047173;28;20198;-79
2021/01/12 03:44:08;;;;;;;4.10;3.80;;;;;;;3.17;87.34;99341.75;5044411;28;20237;-78
2021/01/12 03:46:34;;;;;;;3.97;3.67;;;;;;;3.14;87.87;99352.94;5034145;28;20225;-78
2021/01/12 03:49:00;;;;;;;3.93;3.63;;;;;;;3.12;87.96;99341.78;5054898;28;20209;-79
2021/01/12 03:51:27;;;;;;;4.00;3.70;;;;;;;3.15;87.71;99346.06;5038723;28;20201;-79
2021/01/12 03:53:53;;;;;;;4.10;3.80;;;;;;;3.16;88.08;99333.16;5038649;28;20206;-78
2021/01/12 03:56:19;;;;;;;4.40;4.10;;;;;;;3.20;87.98;99336.59;5045722;28;20223;-79
2021/01/12 03:58:45;;;;;;;4.03;3.53;;;;;;;3.14;88.02;99324.59;5055383;28;20198;-78
2021/01/12 04:01:12;;;;;;;3.70;3.40;;;;;;;3.20;87.93;99325.44;5049983;28;20662;-79
2021/01/12 04:03:38;;;;;;;3.97;3.67;;;;;;;3.16;87.84;99324.59;5043949;28;20202;-80
2021/01/12 04:06:12;;;;;;;3.57;3.27;;;;;;;3.12;87.50;99322.91;5048223;28;20304;-79
2021/01/12 04:08:40;;;;;;;3.70;3.40;;;;;;;3.15;87.58;99315.13;5051663;28;20194;-78
2021/01/12 04:11:06;;;;;;;2.87;2.67;;;;;;;3.08;88.36;99319.47;5049350;28;20693;-79
2021/01/12 04:13:32;;;;;;;2.93;2.73;;;;;;;3.13;87.75;99307.44;5054189;28;20225;-79
2021/01/12 04:15:58;;;;;;;3.03;2.83;;;;;;;3.14;88.34;99309.13;5039524;28;20317;-79
2021/01/12 04:18:23;;;;;;;2.90;2.70;;;;;;;3.11;87.62;99321.16;5055789;28;20664;-79
2021/01/12 04:20:49;;;;;;;2.93;2.73;;;;;;;3.11;88.36;99308.28;5045019;28;20845;-79
2021/01/12 04:23:15;;;;;;;3.10;2.90;;;;;;;3.12;88.66;99297.13;5057451;28;20540;-79
2021/01/12 04:25:42;;;;;;;2.63;2.53;;;;;;;3.08;88.59;99291.13;5049875;28;20645;-79
2021/01/12 04:28:08;;;;;;;3.20;3.00;;;;;;;3.16;88.06;99298.81;5057643;28;20209;-79
2021/01/12 04:30:33;;;;;;;2.90;2.70;;;;;;;3.12;87.98;99289.38;5046281;28;20203;-79
2021/01/12 04:32:59;;;;;;;3.17;2.97;;;;;;;3.18;88.30;99287.59;5048056;28;20574;-79
2021/01/12 04:35:25;;;;;;;2.80;2.60;;;;;;;3.21;88.13;99291.03;5048653;28;20323;-79
2021/01/12 04:37:51;;;;;;;2.93;2.73;;;;;;;3.18;87.94;99287.59;5042766;28;20205;-79
2021/01/12 04:40:17;;;;;;;2.70;2.50;;;;;;;3.10;87.88;99279.06;5044721;28;20218;-78
2021/01/12 04:42:44;;;;;;;2.90;2.70;;;;;;;3.15;88.41;99284.19;5050357;28;20242;-79
2021/01/12 04:45:10;;;;;;;2.97;2.77;;;;;;;3.13;88.28;99273.03;5045139;28;20317;-80
2021/01/12 04:47:36;;;;;;;2.70;2.50;;;;;;;3.13;88.21;99276.50;5046970;28;20194;-79
2021/01/12 04:50:03;;;;;;;2.67;2.47;;;;;;;3.08;87.91;99269.66;5053543;28;20240;-79
2021/01/12 04:52:29;;;;;;;1.97;1.87;;;;;;;3.04;87.87;99257.66;5054411;28;20202;-79
2021/01/12 04:54:55;;;;;;;2.73;2.53;;;;;;;3.01;87.58;99253.34;5049426;28;20241;-78
2021/01/12 04:57:21;;;;;;;2.47;2.27;;;;;;;3.00;88.06;99235.34;5053130;28;20250;-78
2021/01/12 04:59:47;;;;;;;2.13;2.00;;;;;;;2.99;87.75;99242.19;5067350;28;20251;-77
2021/01/12 05:02:13;;;;;;;2.10;2.00;;;;;;;3.02;87.50;99244.75;5057623;28;20236;-78
2021/01/12 05:04:41;;;;;;;2.20;2.10;;;;;;;2.96;87.81;99237.09;5057646;28;20205;-78
2021/01/12 05:07:08;;;;;;;2.40;2.30;;;;;;;3.04;88.25;99240.44;5066365;28;20269;-77
2021/01/12 05:09:34;;;;;;;2.10;2.00;;;;;;;3.01;87.71;99237.03;5062749;28;20206;-78
2021/01/12 05:12:01;;;;;;;2.00;1.90;;;;;;;2.90;87.97;99227.66;5057695;28;20228;-78
2021/01/12 05:14:28;;;;;;;2.20;2.10;;;;;;;2.89;87.61;99219.94;5060830;28;20202;-78
2021/01/12 05:16:56;;;;;;;2.07;1.80;;;;;;;2.91;87.60;99224.22;5060420;28;20226;-78
2021/01/12 05:19:26;;;;;;;2.17;2.03;;;;;;;2.91;88.15;99208.75;5068447;28;20563;-78
2021/01/12 05:21:57;;;;;;;1.70;1.60;;;;;;;2.84;87.25;99214.00;5055181;28;20216;-77
2021/01/12 05:24:24;;;;;;;1.80;1.70;;;;;;;2.89;87.52;99210.47;5082760;23;20302;-82
2021/01/12 05:26:49;;;;;;;1.50;1.40;;;;;;;2.90;87.95;99204.47;5066446;28;20206;-83
2021/01/12 05:29:16;;;;;;;1.87;1.77;;;;;;;2.92;87.56;99200.16;5071288;28;20236;-83
2021/01/12 05:31:44;;;;;;;1.83;1.73;;;;;;;2.95;87.69;99202.72;5076800;28;20193;-81
2021/01/12 05:34:11;;;;;;;1.87;1.77;;;;;;;2.87;87.19;99194.19;5071417;28;20312;-81
2021/01/12 05:36:48;;;;;;;1.80;1.70;;;;;;;2.91;87.69;99184.69;5074844;28;20275;-83
2021/01/12 05:39:16;;;;;;;2.00;1.90;;;;;;;2.89;87.41;99182.13;5071104;28;20193;-84
2021/01/12 05:41:43;;;;;;;2.10;1.60;;;;;;;2.90;88.28;99180.44;5075809;28;20193;-82
2021/01/12 05:44:13;;;;;;;1.57;1.47;;;;;;;2.89;87.57;99178.72;5076633;28;20221;-81
2021/01/12 05:46:39;;;;;;;1.50;1.40;;;;;;;2.87;87.04;99178.72;5074282;28;20202;-84
2021/01/12 05:49:05;;;;;;;1.60;1.50;;;;;;;2.88;87.89;99167.56;5071743;28;20202;-80
2021/01/12 05:51:43;;;;;;;2.40;1.80;;;;;;;2.95;87.32;99163.19;5074375;28;20259;-83
2021/01/12 05:54:20;;;;;;;1.50;1.40;;;;;;;2.94;87.38;99169.22;5052407;28;20316;-84
2021/01/12 05:56:48;;;;;;;2.10;1.53;;;;;;;2.93;87.68;99160.66;5074391;28;20236;-83
2021/01/12 05:59:23;;;;;;;1.27;1.17;;;;;;;2.89;87.54;99165.81;5053472;28;20192;-83
2021/01/12 06:01:51;;;;;;;1.53;1.43;;;;;;;2.90;87.38;99142.63;5069902;28;20201;-82
2021/01/12 06:04:17;;;;;;;1.50;1.40;;;;;;;2.89;87.33;99148.63;5057767;28;20225;-83
2021/01/12 06:06:45;;;;;;;1.40;1.30;;;;;;;2.94;87.64;99141.72;5063266;28;20201;-85
2021/01/12 06:09:12;;;;;;;1.40;1.30;;;;;;;2.93;88.07;99134.00;5063886;28;20267;-84
2021/01/12 06:11:41;;;;;;;1.00;1.00;;;;;;;2.81;87.60;99147.00;5070398;28;20185;-84
2021/01/12 06:14:10;;;;;;;1.40;1.30;;;;;;;2.81;87.99;99136.69;5064113;28;20225;-84
2021/01/12 06:16:38;;;;;;;0.97;0.97;;;;;;;2.79;88.33;99131.53;5066345;28;20695;-85
2021/01/12 06:19:10;;;;;;;1.80;1.70;;;;;;;2.81;89.00;99136.69;5063308;28;20205;-83
2021/01/12 06:22:02;;;;;;;1.23;1.13;;;;;;;2.86;87.60;99124.63;5067518;28;20716;-82
2021/01/12 06:24:36;;;;;;;1.30;1.20;;;;;;;2.89;88.43;99130.59;5063755;28;20717;-82
2021/01/12 06:27:06;;;;;;;1.00;1.00;;;;;;;2.91;87.58;99135.75;5066871;28;20650;-82
2021/01/12 06:29:32;;;;;;;1.00;1.00;;;;;;;2.91;88.41;99122.84;5065872;28;20197;-82
2021/01/12 06:31:58;;;;;;;0.90;0.90;;;;;;;2.92;88.53;99122.84;5073304;28;20211;-81
2021/01/12 06:34:24;;;;;;;1.10;1.00;;;;;;;2.87;87.90;99132.31;5067403;28;20221;-84
2021/01/12 06:36:53;;;;;;;1.17;1.10;;;;;;;2.88;88.69;99128.91;5065448;28;20583;-82
2021/01/12 06:39:21;;;;;;;1.20;1.20;;;;;;;2.92;88.49;99124.56;5058264;28;20205;-82
2021/01/12 06:41:48;;;;;;;1.37;1.27;;;;;;;2.98;88.46;99120.22;5067951;28;20212;-81
2021/01/12 06:44:23;;;;;;;1.30;1.30;;;;;;;3.02;88.23;99125.34;5063332;28;20657;-82
2021/01/12 06:46:51;;;;;;;1.10;1.10;;;;;;;3.03;88.88;99116.72;5070810;28;20200;-83
2021/01/12 06:49:18;;;;;;;1.17;1.17;;;;;;;2.92;88.89;99109.97;5064141;28;20243;-83
2021/01/12 06:51:44;;;;;;;1.17;1.17;;;;;;;2.96;88.42;99106.47;5077254;28;20553;-85
2021/01/12 06:54:13;;;;;;;0.90;0.90;;;;;;;3.05;89.05;99097.78;5067114;28;20227;-84
2021/01/12 06:56:41;;;;;;;1.30;1.30;;;;;;;3.09;88.54;99089.19;5079546;28;20216;-82
2021/01/12 06:59:13;;;;;;;1.63;1.40;;;;;;;3.10;88.93;99092.59;5072950;28;20300;-83
2021/01/12 07:01:39;;;;;;;1.47;1.37;;;;;;;3.04;88.92;99093.53;5076393;28;20193;-83
2021/01/12 07:04:05;;;;;;;1.23;1.13;;;;;;;3.08;88.74;99112.41;5063111;28;20309;-85
2021/01/12 07:06:33;;;;;;;1.30;1.20;;;;;;;2.99;88.71;99103.00;5068030;28;20275;-81
2021/01/12 07:09:00;;;;;;;1.43;1.33;;;;;;;3.03;88.90;99094.38;5063677;28;20227;-81
2021/01/12 07:11:26;;;;;;;1.20;1.20;;;;;;;3.09;89.56;99090.88;5074875;28;20254;-82
2021/01/12 07:13:52;;;;;;;1.40;1.30;;;;;;;3.07;88.55;99085.78;5067413;28;20287;-81
2021/01/12 07:16:18;;;;;;;1.60;1.50;;;;;;;3.11;89.25;99091.72;5077790;28;20591;-80
2021/01/12 07:18:57;;;;;;;1.60;1.50;;;;;;;3.03;89.44;99091.78;5064527;28;20202;-80
2021/01/12 07:21:28;;;;;;;1.57;1.47;;;;;;;3.11;88.89;99091.72;5071091;28;20193;-81
2021/01/12 07:24:00;;;;;;;1.40;1.30;;;;;;;3.08;88.93;99084.88;5060091;28;20260;-81
2021/01/12 07:26:30;;;;;;;1.60;1.50;;;;;;;3.11;89.68;99084.88;5078351;28;20243;-80
2021/01/12 07:29:04;;;;;;;1.80;1.70;;;;;;;3.02;89.52;99089.25;5069256;28;20233;-82
2021/01/12 07:31:30;;;;;;;1.63;1.53;;;;;;;3.08;89.16;99082.31;5083779;28;20193;-82
2021/01/12 07:33:56;;;;;;;1.70;1.60;;;;;;;3.14;89.13;99083.97;5065405;28;20221;-82
2021/01/12 07:36:22;;;;;;;1.40;1.30;;;;;;;3.12;89.03;99077.97;5072608;28;20217;-79
2021/01/12 07:38:50;;;;;;;2.13;2.03;;;;;;;3.13;89.64;99067.66;5078125;28;20213;-81
2021/01/12 07:41:17;;;;;;;1.43;1.33;;;;;;;3.15;89.73;99077.91;5065847;28;20665;-81
2021/01/12 07:43:44;;;;;;;1.40;1.30;;;;;;;3.15;89.72;99075.34;5066046;28;20236;-82
2021/01/12 07:46:10;;;;;;;1.30;1.30;;;;;;;3.21;89.24;99077.88;5078734;28;20189;-80
2021/01/12 07:48:36;;;;;;;1.60;1.50;;;;;;;3.18;89.60;99073.59;5081228;28;20192;-80
2021/01/12 07:51:03;;;;;;;1.60;1.50;;;;;;;3.14;89.81;99074.50;5081915;28;20193;-80
2021/01/12 07:53:31;;;;;;;1.80;1.70;;;;;;;3.22;89.86;99079.56;5077112;28;20232;-81
2021/01/12 07:55:57;;;;;;;1.73;1.63;;;;;;;3.24;90.29;99077.84;5079656;28;20225;-79
2021/01/12 07:58:24;;;;;;;1.50;1.40;;;;;;;3.31;89.66;99084.63;5079091;28;20208;-81
2021/01/12 08:00:51;;;;;;;1.80;1.70;;;;;;;3.35;89.59;99080.28;5081310;28;20235;-80
2021/01/12 08:03:17;;;;;;;1.80;1.70;;;;;;;3.38;89.49;99086.25;5068780;28;20225;-80
2021/01/12 08:05:43;;;;;;;1.50;1.40;;;;;;;3.44;89.51;99084.50;5068762;28;20210;-80
2021/01/12 08:08:10;;;;;;;3.93;1.40;;;;;;;3.45;89.80;99075.88;5072331;28;20212;-79
2021/01/12 08:10:38;;;;;;;1.63;1.53;;;;;;;3.42;89.67;99083.66;5074313;28;20217;-80
2021/01/12 08:13:05;;;;;;;1.83;1.73;;;;;;;3.50;89.65;99080.09;5077010;28;20205;-80
2021/01/12 08:15:31;;;;;;;1.80;1.70;;;;;;;3.56;89.30;99077.44;5076463;28;20204;-80
2021/01/12 08:17:57;;;;;;;1.70;1.30;;;;;;;3.53;89.79;99085.25;5065641;28;20208;-79
2021/01/12 08:20:24;;;;;;;1.80;1.70;;;;;;;3.55;89.33;99082.66;5074328;28;20282;-81
2021/01/12 08:22:50;;;;;;;2.10;2.00;;;;;;;3.63;89.52;99087.69;5074695;28;20201;-80
2021/01/12 08:25:16;;;;;;;1.80;1.70;;;;;;;3.68;89.77;99085.91;5069593;28;20771;-80
2021/01/12 08:27:47;;;;;;;1.60;1.50;;;;;;;3.66;89.11;99088.50;5074561;28;20197;-81
2021/01/12 08:30:14;;;;;;;1.90;1.67;;;;;;;3.74;89.28;99097.00;5074695;28;20201;-80
2021/01/12 08:32:45;;;;;;;1.70;1.60;;;;;;;3.80;89.45;99097.81;5068787;28;20198;-81
2021/01/12 08:35:14;;;;;;;2.00;1.70;;;;;;;3.80;89.45;99101.22;5068445;28;20807;-81
2021/01/12 08:37:41;;;;;;;1.60;1.50;;;;;;;3.86;89.44;99098.56;5071789;28;20225;-81
2021/01/12 08:40:11;;;;;;;1.67;1.50;;;;;;;3.92;89.60;99092.47;5067024;28;20550;-80
2021/01/12 08:42:38;;;;;;;1.77;1.67;;;;;;;4.06;89.15;99102.59;5069318;28;20447;-81
2021/01/12 08:45:12;;;;;;;2.03;1.70;;;;;;;3.95;89.18;99108.78;5073186;28;20225;-79
2021/01/12 08:47:38;;;;;;;2.00;1.80;;;;;;;4.00;88.89;99115.59;5074930;28;20216;-82
2021/01/12 08:50:07;;;;;;;2.23;2.00;;;;;;;3.90;89.75;99110.56;5078367;28;20205;-81
2021/01/12 08:52:36;;;;;;;1.80;1.70;;;;;;;3.98;89.80;99121.66;5074041;28;20801;-83
2021/01/12 08:55:03;;;;;;;2.73;2.53;;;;;;;4.01;89.73;99118.16;5073313;28;20216;-82
2021/01/12 08:57:54;;;;;;;2.13;2.03;;;;;;;4.00;89.52;99125.94;5077734;28;20736;-84
2021/01/12 09:00:26;;;;;;;2.80;2.20;;;;;;;4.07;89.35;99118.09;5082645;28;20213;-81
2021/01/12 09:02:53;;;;;;;2.00;1.90;;;;;;;4.17;89.62;99123.97;5078286;28;20204;-81
2021/01/12 09:05:19;;;;;;;1.63;1.53;;;;;;;4.24;89.31;99120.44;5079662;28;20220;-81
2021/01/12 09:07:46;;;;;;;1.70;1.60;;;;;;;4.16;89.01;99109.34;5068972;28;20205;-82
2021/01/12 09:10:12;;;;;;;1.80;1.70;;;;;;;4.24;89.30;99122.16;5067477;28;20213;-82
2021/01/12 09:12:39;;;;;;;2.00;1.90;;;;;;;4.30;89.34;99120.34;5073220;28;20197;-84
2021/01/12 09:15:06;;;;;;;2.23;2.13;;;;;;;4.20;89.50;99112.72;5063343;28;20247;-81
2021/01/12 09:17:32;;;;;;;1.60;1.50;;;;;;;4.28;89.39;99119.50;5065636;28;20540;-82
2021/01/12 09:19:57;;;;;;;1.63;1.53;;;;;;;4.33;89.52;99122.88;5055723;28;20693;-81
2021/01/12 09:22:29;;;;;;;1.80;1.70;;;;;;;4.32;89.49;99120.28;5058147;28;20201;-82
2021/01/12 09:24:57;;;;;;;1.73;1.53;;;;;;;4.35;89.47;99117.69;5061713;28;20255;-83
2021/01/12 09:27:26;;;;;;;1.47;1.37;;;;;;;4.42;89.40;99116.72;5067556;28;20194;-82
2021/01/12 09:29:52;;;;;;;1.70;1.60;;;;;;;4.42;89.29;99115.84;5063327;28;20200;-82
2021/01/12 09:32:26;;;;;;;1.90;1.80;;;;;;;4.37;89.48;99113.34;5069631;28;20260;-81
2021/01/12 09:34:52;;;;;;;1.60;1.50;;;;;;;4.33;89.80;99112.53;5061865;28;20225;-82
2021/01/12 09:37:19;;;;;;;2.23;1.90;;;;;;;4.33;90.25;99111.69;5071897;28;20221;-82
2021/01/12 09:39:46;;;;;;;1.57;1.47;;;;;;;4.33;90.26;99111.69;5064564;28;20252;-80
2021/01/12 09:42:18;;;;;;;1.77;1.67;;;;;;;4.31;90.50;99116.03;5076963;28;20685;-81
2021/01/12 09:44:44;;;;;;;2.27;1.40;;;;;;;4.28;90.21;99105.72;5064939;28;20255;-82
2021/01/12 09:47:10;;;;;;;1.70;1.60;;;;;;;4.23;90.52;99099.78;5071296;28;20573;-82
2021/01/12 09:49:36;;;;;;;1.60;1.50;;;;;;;4.26;90.57;99102.31;5061639;28;20205;-81
2021/01/12 09:52:02;;;;;;;1.40;1.30;;;;;;;4.32;90.65;99107.38;5073831;28;20223;-81
2021/01/12 09:54:28;;;;;;;1.70;1.60;;;;;;;4.40;90.49;99110.72;5059250;28;20751;-82
2021/01/12 09:56:54;;;;;;;1.57;1.47;;;;;;;4.46;90.46;99109.75;5063256;28;20221;-82
2021/01/12 09:59:20;;;;;;;2.33;1.73;;;;;;;4.50;90.48;99109.69;5066617;28;20222;-81
2021/01/12 10:01:54;;;;;;;1.73;1.63;;;;;;;4.50;90.76;99106.25;5067031;28;20201;-81
2021/01/12 10:04:20;;;;;;;1.80;1.70;;;;;;;4.52;90.24;99109.66;5066119;28;20221;-82
2021/01/12 10:06:46;;;;;;;1.40;1.30;;;;;;;4.36;90.58;99114.22;5068633;28;20202;-83
2021/01/12 10:09:12;;;;;;;1.60;1.50;;;;;;;4.44;90.50;99114.97;5070508;28;20588;-82
2021/01/12 10:11:38;;;;;;;1.67;1.57;;;;;;;4.56;90.43;99113.94;5075977;28;20221;-80
2021/01/12 10:14:03;;;;;;;1.70;1.60;;;;;;;4.59;90.37;99116.44;5055875;28;20230;-83
2021/01/12 10:16:30;;;;;;;1.50;1.40;;;;;;;4.54;90.13;99110.50;5069646;28;20216;-83
2021/01/12 10:18:56;;;;;;;1.60;1.50;;;;;;;4.39;90.80;99114.19;5067721;28;20201;-83
2021/01/12 10:21:22;;;;;;;1.70;1.60;;;;;;;4.45;91.11;99123.56;5071469;28;20200;-82
2021/01/12 10:23:48;;;;;;;2.67;1.80;;;;;;;4.45;91.27;99128.72;5066184;28;20236;-84
2021/01/12 10:27:16;;;;;;;1.77;1.67;;;;;;;4.52;91.25;99132.91;5071466;28;20640;-83
2021/01/12 10:29:42;;;;;;;2.27;1.80;;;;;;;4.29;91.01;99141.03;5069022;28;20247;-84
2021/01/12 10:32:11;;;;;;;3.07;2.77;;;;;;;4.31;91.37;99149.59;5069051;28;20204;-83
2021/01/12 10:34:37;;;;;;;1.83;1.73;;;;;;;4.36;91.28;99207.19;5069887;28;20775;-83
2021/01/12 10:37:02;;;;;;;0.57;0.50;;;;;;;4.19;89.67;99215.19;5076619;28;20221;-83
2021/01/12 10:39:28;;;;;;;0.63;0.30;;;;;;;4.13;88.78;99216.13;5069028;28;20205;-84
2021/01/12 10:41:55;;;;;;;1.37;0.30;;;;;;;4.08;88.06;99215.31;5076390;28;20573;-82
2021/01/12 10:44:21;;;;;;;0.77;0.33;;;;;;;4.01;88.03;99224.03;5072484;28;20244;-83
2021/01/12 10:46:47;;;;;;;0.40;0.40;;;;;;;3.88;87.52;99225.88;5075066;28;20197;-82
2021/01/12 10:49:13;;;;;;;1.60;0.53;;;;;;;3.84;87.30;99238.84;5075500;28;20311;-81
2021/01/12 10:51:39;;;;;;;0.30;0.30;;;;;;;3.68;86.42;99245.91;5075007;28;20208;-83
2021/01/12 10:54:05;;;;;;;1.10;0.40;;;;;;;3.60;86.81;99253.72;5074199;28;20849;-83
2021/01/12 10:56:31;;;;;;;1.43;0.57;;;;;;;3.56;86.48;99258.03;5082087;28;20236;-83
2021/01/12 10:58:56;;;;;;;2.00;0.50;;;;;;;3.51;86.13;99261.56;5077476;28;20668;-81
2021/01/12 11:01:23;;;;;;;1.13;0.53;;;;;;;3.44;86.79;99262.47;5081506;28;20208;-82
2021/01/12 11:03:48;;;;;;;1.70;0.70;;;;;;;3.50;87.03;99268.41;5068970;28;20225;-82
2021/01/12 11:06:18;;;;;;;2.43;2.23;;;;;;;3.57;86.97;99261.50;5073349;28;20658;-80
2021/01/12 11:08:44;;;;;;;2.15;0.90;;;;;;;3.66;86.30;99266.56;5069514;28;20512;-81
2021/01/12 11:11:09;;;;;;;2.63;0.50;;;;;;;3.67;86.96;99272.59;5071905;28;20200;-80
2021/01/12 11:13:35;;;;;;;2.07;0.83;;;;;;;3.37;86.64;99275.44;5068169;28;20232;-80
2021/01/12 11:16:01;;;;;;;0.87;0.50;;;;;;;3.37;86.46;99279.75;5075544;28;20225;-80
2021/01/12 11:18:27;;;;;;;1.80;0.80;;;;;;;3.31;86.89;99280.66;5073493;28;20197;-80
2021/01/12 11:20:54;;;;;;;2.40;0.93;;;;;;;3.47;86.52;99280.47;5073436;28;20198;-80
2021/01/12 11:23:20;;;;;;;2.10;0.90;;;;;;;3.24;86.35;99281.53;5077782;28;20197;-83
2021/01/12 11:25:47;;;;;;;2.00;1.00;;;;;;;3.25;86.81;99279.81;5073769;28;20651;-82
2021/01/12 11:28:13;;;;;;;3.65;0.90;;;;;;;3.29;86.76;99281.50;5068853;28;21046;-84
2021/01/12 11:30:38;;;;;;;4.70;1.00;;;;;;;3.34;86.61;99282.34;5065795;28;20225;-80
2021/01/12 11:33:06;;;;;;;3.40;1.30;;;;;;;3.46;86.05;99277.06;5068253;28;20471;-84
2021/01/12 11:35:32;;;;;;;1.47;1.00;;;;;;;3.26;85.58;99277.22;5073888;28;20295;-84
2021/01/12 11:37:59;;;;;;;2.53;1.10;;;;;;;3.27;86.90;99284.13;5069029;28;20229;-81
2021/01/12 11:40:25;;;;;;;2.10;1.00;;;;;;;3.40;87.58;99287.44;5064770;28;20212;-82
2021/01/12 11:42:51;;;;;;;1.57;0.60;;;;;;;3.38;88.30;99290.03;5069230;28;20251;-82